sensor_id;sensor_type;location;lat;lon;timestamp;P1;durP1;ratioP1;P2;durP2;ratioP2
30247;SDS011;17063;50.892;4.702;2023-03-24T00:01:05;3.50;;;1.90;;
30247;SDS011;17063;50.892;4.702;2023-03-24T00:03:32;2.77;;;1.80;;
30247;SDS011;17063;50.892;4.702;2023-03-24T00:06:00;3.37;;;1.60;;
30247;SDS011;17063;50.892;4.702;2023-03-24T00:08:28;2.30;;;1.63;;
30247;SDS011;17063;50.892;4.702;2023-03-24T00:10:57;2.37;;;1.40;;
30247;SDS011;17063;50.892;4.702;2023-03-24T00:13:26;4.17;;;1.60;;
30247;SDS011;17063;50.892;4.702;2023-03-24T00:15:53;3.67;;;1.80;;
30247;SDS011;17063;50.892;4.702;2023-03-24T00:18:21;2.17;;;1.80;;
30247;SDS011;17063;50.892;4.702;2023-03-24T00:20:51;2.10;;;1.77;;
30247;SDS011;17063;50.892;4.702;2023-03-24T00:23:25;2.70;;;1.53;;
30247;SDS011;17063;50.892;4.702;2023-03-24T00:26:27;3.50;;;1.83;;
30247;SDS011;17063;50.892;4.702;2023-03-24T00:28:47;4.37;;;1.80;;
30247;SDS011;17063;50.892;4.702;2023-03-24T00:31:15;3.70;;;1.60;;
30247;SDS011;17063;50.892;4.702;2023-03-24T00:33:43;5.60;;;2.03;;
30247;SDS011;17063;50.892;4.702;2023-03-24T00:36:13;2.87;;;1.63;;
30247;SDS011;17063;50.892;4.702;2023-03-24T00:38:40;4.13;;;1.50;;
30247;SDS011;17063;50.892;4.702;2023-03-24T00:41:07;5.77;;;1.70;;
30247;SDS011;17063;50.892;4.702;2023-03-24T00:43:36;2.80;;;1.60;;
30247;SDS011;17063;50.892;4.702;2023-03-24T00:46:07;2.23;;;1.60;;
30247;SDS011;17063;50.892;4.702;2023-03-24T00:48:37;3.13;;;1.50;;
30247;SDS011;17063;50.892;4.702;2023-03-24T00:51:07;1.93;;;1.37;;
30247;SDS011;17063;50.892;4.702;2023-03-24T00:53:36;2.03;;;1.50;;
30247;SDS011;17063;50.892;4.702;2023-03-24T00:56:09;2.37;;;1.60;;
30247;SDS011;17063;50.892;4.702;2023-03-24T00:58:41;3.13;;;1.53;;
30247;SDS011;17063;50.892;4.702;2023-03-24T01:01:07;3.17;;;1.77;;
30247;SDS011;17063;50.892;4.702;2023-03-24T01:03:35;3.93;;;1.70;;
30247;SDS011;17063;50.892;4.702;2023-03-24T01:06:08;6.63;;;2.10;;
30247;SDS011;17063;50.892;4.702;2023-03-24T01:08:38;2.53;;;1.90;;
30247;SDS011;17063;50.892;4.702;2023-03-24T01:11:05;3.40;;;2.00;;
30247;SDS011;17063;50.892;4.702;2023-03-24T01:13:32;4.07;;;2.03;;
30247;SDS011;17063;50.892;4.702;2023-03-24T01:15:59;3.83;;;1.70;;
30247;SDS011;17063;50.892;4.702;2023-03-24T01:18:27;4.20;;;1.80;;
30247;SDS011;17063;50.892;4.702;2023-03-24T01:20:53;6.27;;;1.80;;
30247;SDS011;17063;50.892;4.702;2023-03-24T01:23:22;3.67;;;1.97;;
30247;SDS011;17063;50.892;4.702;2023-03-24T01:25:51;1.70;;;1.60;;
30247;SDS011;17063;50.892;4.702;2023-03-24T01:28:20;2.13;;;1.83;;
30247;SDS011;17063;50.892;4.702;2023-03-24T01:30:53;2.43;;;1.70;;
30247;SDS011;17063;50.892;4.702;2023-03-24T01:33:20;7.00;;;2.10;;
30247;SDS011;17063;50.892;4.702;2023-03-24T01:35:47;5.10;;;1.80;;
30247;SDS011;17063;50.892;4.702;2023-03-24T01:38:15;1.90;;;1.53;;
30247;SDS011;17063;50.892;4.702;2023-03-24T01:40:43;8.23;;;2.37;;
30247;SDS011;17063;50.892;4.702;2023-03-24T01:43:20;2.33;;;1.60;;
30247;SDS011;17063;50.892;4.702;2023-03-24T01:53:48;1.80;;;1.70;;
30247;SDS011;17063;50.892;4.702;2023-03-24T01:56:25;2.03;;;1.80;;
30247;SDS011;17063;50.892;4.702;2023-03-24T01:58:54;5.17;;;2.07;;
30247;SDS011;17063;50.892;4.702;2023-03-24T02:01:32;2.10;;;1.50;;
30247;SDS011;17063;50.892;4.702;2023-03-24T02:04:14;2.43;;;1.93;;
30247;SDS011;17063;50.892;4.702;2023-03-24T02:06:42;1.77;;;1.47;;
30247;SDS011;17063;50.892;4.702;2023-03-24T02:09:11;1.73;;;1.40;;
30247;SDS011;17063;50.892;4.702;2023-03-24T02:11:39;3.43;;;2.00;;
30247;SDS011;17063;50.892;4.702;2023-03-24T02:14:07;2.73;;;2.07;;
30247;SDS011;17063;50.892;4.702;2023-03-24T02:44:01;1.47;;;1.37;;
30247;SDS011;17063;50.892;4.702;2023-03-24T02:46:35;3.57;;;1.70;;
30247;SDS011;17063;50.892;4.702;2023-03-24T02:55:06;0.87;;;0.83;;
30247;SDS011;17063;50.892;4.702;2023-03-24T03:00:39;1.80;;;0.60;;
30247;SDS011;17063;50.892;4.702;2023-03-24T03:03:44;3.80;;;0.80;;
30247;SDS011;17063;50.892;4.702;2023-03-24T03:06:15;2.67;;;1.17;;
30247;SDS011;17063;50.892;4.702;2023-03-24T03:08:45;2.37;;;0.80;;
30247;SDS011;17063;50.892;4.702;2023-03-24T03:11:16;3.07;;;0.97;;
30247;SDS011;17063;50.892;4.702;2023-03-24T03:16:29;4.70;;;1.23;;
30247;SDS011;17063;50.892;4.702;2023-03-24T03:19:14;2.10;;;0.80;;
30247;SDS011;17063;50.892;4.702;2023-03-24T03:21:53;3.30;;;0.73;;
30247;SDS011;17063;50.892;4.702;2023-03-24T03:24:26;6.00;;;0.87;;
30247;SDS011;17063;50.892;4.702;2023-03-24T03:27:04;2.73;;;0.90;;
30247;SDS011;17063;50.892;4.702;2023-03-24T03:29:36;5.30;;;1.20;;
30247;SDS011;17063;50.892;4.702;2023-03-24T03:32:05;2.60;;;0.80;;
30247;SDS011;17063;50.892;4.702;2023-03-24T03:34:48;2.60;;;0.80;;
30247;SDS011;17063;50.892;4.702;2023-03-24T03:37:27;6.70;;;1.27;;
30247;SDS011;17063;50.892;4.702;2023-03-24T03:40:18;4.33;;;1.10;;
30247;SDS011;17063;50.892;4.702;2023-03-24T03:42:52;4.70;;;1.10;;
30247;SDS011;17063;50.892;4.702;2023-03-24T03:45:19;1.50;;;0.73;;
30247;SDS011;17063;50.892;4.702;2023-03-24T03:47:46;2.17;;;0.80;;
30247;SDS011;17063;50.892;4.702;2023-03-24T03:50:13;3.50;;;0.90;;
30247;SDS011;17063;50.892;4.702;2023-03-24T03:52:41;4.37;;;0.90;;
30247;SDS011;17063;50.892;4.702;2023-03-24T03:55:10;8.07;;;1.00;;
30247;SDS011;17063;50.892;4.702;2023-03-24T03:57:39;1.33;;;0.87;;
30247;SDS011;17063;50.892;4.702;2023-03-24T04:00:12;5.83;;;1.13;;
30247;SDS011;17063;50.892;4.702;2023-03-24T04:05:41;5.37;;;1.37;;
30247;SDS011;17063;50.892;4.702;2023-03-24T04:08:24;5.93;;;1.10;;
30247;SDS011;17063;50.892;4.702;2023-03-24T04:25:25;3.37;;;1.40;;
30247;SDS011;17063;50.892;4.702;2023-03-24T04:27:57;8.57;;;1.40;;
30247;SDS011;17063;50.892;4.702;2023-03-24T04:33:26;7.20;;;1.60;;
30247;SDS011;17063;50.892;4.702;2023-03-24T04:36:12;5.03;;;1.60;;
30247;SDS011;17063;50.892;4.702;2023-03-24T04:39:04;5.37;;;1.50;;
30247;SDS011;17063;50.892;4.702;2023-03-24T04:41:38;7.63;;;1.50;;
30247;SDS011;17063;50.892;4.702;2023-03-24T04:44:12;4.87;;;1.20;;
30247;SDS011;17063;50.892;4.702;2023-03-24T04:46:55;9.80;;;1.40;;
30247;SDS011;17063;50.892;4.702;2023-03-24T04:49:23;9.73;;;1.80;;
30247;SDS011;17063;50.892;4.702;2023-03-24T04:51:52;8.03;;;1.57;;
30247;SDS011;17063;50.892;4.702;2023-03-24T04:54:24;12.63;;;1.73;;
30247;SDS011;17063;50.892;4.702;2023-03-24T04:56:57;9.50;;;1.90;;
30247;SDS011;17063;50.892;4.702;2023-03-24T04:59:35;18.77;;;2.27;;
30247;SDS011;17063;50.892;4.702;2023-03-24T05:02:04;10.90;;;2.17;;
30247;SDS011;17063;50.892;4.702;2023-03-24T05:05:07;10.20;;;1.70;;
30247;SDS011;17063;50.892;4.702;2023-03-24T05:07:40;12.87;;;2.43;;
30247;SDS011;17063;50.892;4.702;2023-03-24T05:10:10;8.63;;;1.73;;
30247;SDS011;17063;50.892;4.702;2023-03-24T05:12:45;7.40;;;1.93;;
30247;SDS011;17063;50.892;4.702;2023-03-24T05:15:24;12.10;;;1.93;;
30247;SDS011;17063;50.892;4.702;2023-03-24T05:17:58;12.47;;;2.00;;
30247;SDS011;17063;50.892;4.702;2023-03-24T05:20:26;15.77;;;2.60;;
30247;SDS011;17063;50.892;4.702;2023-03-24T05:23:00;9.37;;;2.60;;
30247;SDS011;17063;50.892;4.702;2023-03-24T05:25:27;6.57;;;1.83;;
30247;SDS011;17063;50.892;4.702;2023-03-24T05:27:54;13.53;;;2.53;;
30247;SDS011;17063;50.892;4.702;2023-03-24T05:30:24;10.93;;;2.27;;
30247;SDS011;17063;50.892;4.702;2023-03-24T05:32:58;12.83;;;2.17;;
30247;SDS011;17063;50.892;4.702;2023-03-24T05:35:26;18.40;;;2.87;;
30247;SDS011;17063;50.892;4.702;2023-03-24T05:37:53;11.97;;;2.80;;
30247;SDS011;17063;50.892;4.702;2023-03-24T05:40:20;11.90;;;2.33;;
30247;SDS011;17063;50.892;4.702;2023-03-24T05:42:51;12.53;;;2.47;;
30247;SDS011;17063;50.892;4.702;2023-03-24T05:45:21;13.83;;;2.60;;
30247;SDS011;17063;50.892;4.702;2023-03-24T05:47:48;12.50;;;2.40;;
30247;SDS011;17063;50.892;4.702;2023-03-24T05:50:19;9.90;;;2.80;;
30247;SDS011;17063;50.892;4.702;2023-03-24T05:52:46;11.17;;;2.10;;
30247;SDS011;17063;50.892;4.702;2023-03-24T05:55:31;9.27;;;2.03;;
30247;SDS011;17063;50.892;4.702;2023-03-24T05:58:09;8.07;;;2.27;;
30247;SDS011;17063;50.892;4.702;2023-03-24T06:00:46;8.33;;;2.23;;
30247;SDS011;17063;50.892;4.702;2023-03-24T06:03:22;8.10;;;1.90;;
30247;SDS011;17063;50.892;4.702;2023-03-24T06:06:00;7.73;;;1.70;;
30247;SDS011;17063;50.892;4.702;2023-03-24T06:08:27;10.33;;;2.30;;
30247;SDS011;17063;50.892;4.702;2023-03-24T06:11:03;11.20;;;2.33;;
30247;SDS011;17063;50.892;4.702;2023-03-24T06:13:35;15.50;;;1.70;;
30247;SDS011;17063;50.892;4.702;2023-03-24T06:16:02;8.03;;;1.83;;
30247;SDS011;17063;50.892;4.702;2023-03-24T06:18:37;14.53;;;2.33;;
30247;SDS011;17063;50.892;4.702;2023-03-24T06:21:22;11.53;;;2.07;;
30247;SDS011;17063;50.892;4.702;2023-03-24T06:24:00;9.33;;;1.67;;
30247;SDS011;17063;50.892;4.702;2023-03-24T06:26:29;12.07;;;2.60;;
30247;SDS011;17063;50.892;4.702;2023-03-24T06:28:58;13.17;;;2.57;;
30247;SDS011;17063;50.892;4.702;2023-03-24T06:31:30;5.37;;;1.63;;
30247;SDS011;17063;50.892;4.702;2023-03-24T06:33:58;5.93;;;1.73;;
30247;SDS011;17063;50.892;4.702;2023-03-24T06:36:25;13.80;;;2.50;;
30247;SDS011;17063;50.892;4.702;2023-03-24T06:38:52;15.90;;;2.00;;
30247;SDS011;17063;50.892;4.702;2023-03-24T06:41:20;14.17;;;2.07;;
30247;SDS011;17063;50.892;4.702;2023-03-24T06:43:52;11.93;;;1.87;;
30247;SDS011;17063;50.892;4.702;2023-03-24T06:46:19;10.87;;;1.80;;
30247;SDS011;17063;50.892;4.702;2023-03-24T06:48:47;9.33;;;1.77;;
30247;SDS011;17063;50.892;4.702;2023-03-24T06:51:15;11.33;;;2.03;;
30247;SDS011;17063;50.892;4.702;2023-03-24T06:53:43;7.27;;;1.87;;
30247;SDS011;17063;50.892;4.702;2023-03-24T06:56:12;13.63;;;3.33;;
30247;SDS011;17063;50.892;4.702;2023-03-24T06:58:48;13.07;;;2.37;;
30247;SDS011;17063;50.892;4.702;2023-03-24T07:01:24;9.57;;;2.67;;
30247;SDS011;17063;50.892;4.702;2023-03-24T07:04:03;9.90;;;1.90;;
30247;SDS011;17063;50.892;4.702;2023-03-24T07:06:57;10.00;;;2.00;;
30247;SDS011;17063;50.892;4.702;2023-03-24T07:09:29;12.77;;;2.70;;
30247;SDS011;17063;50.892;4.702;2023-03-24T07:11:58;9.73;;;2.03;;
30247;SDS011;17063;50.892;4.702;2023-03-24T07:14:28;9.47;;;1.80;;
30247;SDS011;17063;50.892;4.702;2023-03-24T07:16:56;15.03;;;3.47;;
30247;SDS011;17063;50.892;4.702;2023-03-24T07:22:40;11.30;;;2.57;;
30247;SDS011;17063;50.892;4.702;2023-03-24T07:25:26;17.63;;;2.20;;
30247;SDS011;17063;50.892;4.702;2023-03-24T07:28:09;8.93;;;1.97;;
30247;SDS011;17063;50.892;4.702;2023-03-24T07:30:37;7.07;;;1.63;;
30247;SDS011;17063;50.892;4.702;2023-03-24T07:33:20;5.67;;;1.60;;
30247;SDS011;17063;50.892;4.702;2023-03-24T07:35:52;7.73;;;1.67;;
30247;SDS011;17063;50.892;4.702;2023-03-24T07:38:20;8.30;;;2.13;;
30247;SDS011;17063;50.892;4.702;2023-03-24T07:40:51;9.97;;;2.30;;
30247;SDS011;17063;50.892;4.702;2023-03-24T07:43:18;7.13;;;1.90;;
30247;SDS011;17063;50.892;4.702;2023-03-24T07:45:48;6.50;;;1.60;;
30247;SDS011;17063;50.892;4.702;2023-03-24T07:48:19;9.00;;;1.97;;
30247;SDS011;17063;50.892;4.702;2023-03-24T07:50:51;9.67;;;1.80;;
30247;SDS011;17063;50.892;4.702;2023-03-24T07:53:41;16.07;;;2.10;;
30247;SDS011;17063;50.892;4.702;2023-03-24T07:56:21;13.47;;;2.50;;
30247;SDS011;17063;50.892;4.702;2023-03-24T07:58:53;11.47;;;2.60;;
30247;SDS011;17063;50.892;4.702;2023-03-24T08:01:29;8.27;;;1.70;;
30247;SDS011;17063;50.892;4.702;2023-03-24T08:03:59;9.00;;;2.70;;
30247;SDS011;17063;50.892;4.702;2023-03-24T08:06:50;13.53;;;1.77;;
30247;SDS011;17063;50.892;4.702;2023-03-24T08:09:18;10.27;;;1.80;;
30247;SDS011;17063;50.892;4.702;2023-03-24T08:11:48;7.40;;;2.07;;
30247;SDS011;17063;50.892;4.702;2023-03-24T08:14:15;8.77;;;1.50;;
30247;SDS011;17063;50.892;4.702;2023-03-24T08:16:42;10.43;;;2.13;;
30247;SDS011;17063;50.892;4.702;2023-03-24T08:19:11;8.63;;;1.50;;
30247;SDS011;17063;50.892;4.702;2023-03-24T08:21:38;6.97;;;1.70;;
30247;SDS011;17063;50.892;4.702;2023-03-24T08:24:05;7.07;;;1.73;;
30247;SDS011;17063;50.892;4.702;2023-03-24T08:26:32;6.90;;;1.70;;
30247;SDS011;17063;50.892;4.702;2023-03-24T08:29:01;8.77;;;1.53;;
30247;SDS011;17063;50.892;4.702;2023-03-24T08:31:32;5.50;;;1.40;;
30247;SDS011;17063;50.892;4.702;2023-03-24T08:33:59;9.03;;;1.57;;
30247;SDS011;17063;50.892;4.702;2023-03-24T08:36:26;9.60;;;1.97;;
30247;SDS011;17063;50.892;4.702;2023-03-24T08:38:53;11.27;;;2.07;;
30247;SDS011;17063;50.892;4.702;2023-03-24T08:41:22;14.20;;;2.00;;
30247;SDS011;17063;50.892;4.702;2023-03-24T08:44:02;10.17;;;1.70;;
30247;SDS011;17063;50.892;4.702;2023-03-24T08:46:32;11.30;;;2.00;;
30247;SDS011;17063;50.892;4.702;2023-03-24T08:48:59;16.67;;;2.40;;
30247;SDS011;17063;50.892;4.702;2023-03-24T08:51:28;9.60;;;1.70;;
30247;SDS011;17063;50.892;4.702;2023-03-24T08:54:06;11.37;;;1.83;;
30247;SDS011;17063;50.892;4.702;2023-03-24T08:56:34;6.17;;;1.20;;
30247;SDS011;17063;50.892;4.702;2023-03-24T08:59:02;9.80;;;1.77;;
30247;SDS011;17063;50.892;4.702;2023-03-24T09:01:30;10.23;;;1.80;;
30247;SDS011;17063;50.892;4.702;2023-03-24T09:03:57;11.90;;;1.67;;
30247;SDS011;17063;50.892;4.702;2023-03-24T09:06:26;7.60;;;1.50;;
30247;SDS011;17063;50.892;4.702;2023-03-24T09:08:57;7.20;;;1.90;;
30247;SDS011;17063;50.892;4.702;2023-03-24T09:11:23;9.50;;;1.73;;
30247;SDS011;17063;50.892;4.702;2023-03-24T09:13:50;10.93;;;2.23;;
30247;SDS011;17063;50.892;4.702;2023-03-24T09:16:17;10.83;;;1.50;;
30247;SDS011;17063;50.892;4.702;2023-03-24T09:18:45;7.33;;;1.73;;
30247;SDS011;17063;50.892;4.702;2023-03-24T09:21:12;6.60;;;1.53;;
30247;SDS011;17063;50.892;4.702;2023-03-24T09:23:38;7.20;;;1.57;;
30247;SDS011;17063;50.892;4.702;2023-03-24T09:26:05;5.50;;;1.50;;
30247;SDS011;17063;50.892;4.702;2023-03-24T09:28:33;11.00;;;2.50;;
30247;SDS011;17063;50.892;4.702;2023-03-24T09:31:02;8.63;;;1.60;;
30247;SDS011;17063;50.892;4.702;2023-03-24T09:33:31;10.43;;;1.70;;
30247;SDS011;17063;50.892;4.702;2023-03-24T09:36:01;9.00;;;2.07;;
30247;SDS011;17063;50.892;4.702;2023-03-24T09:38:28;8.13;;;1.93;;
30247;SDS011;17063;50.892;4.702;2023-03-24T09:40:59;7.93;;;1.57;;
30247;SDS011;17063;50.892;4.702;2023-03-24T09:43:30;9.83;;;2.17;;
30247;SDS011;17063;50.892;4.702;2023-03-24T09:46:03;6.23;;;1.30;;
30247;SDS011;17063;50.892;4.702;2023-03-24T09:48:38;5.57;;;1.47;;
30247;SDS011;17063;50.892;4.702;2023-03-24T09:51:58;7.77;;;1.70;;
30247;SDS011;17063;50.892;4.702;2023-03-24T09:56:34;8.93;;;2.30;;
30247;SDS011;17063;50.892;4.702;2023-03-24T09:59:06;6.87;;;1.40;;
30247;SDS011;17063;50.892;4.702;2023-03-24T10:01:48;8.33;;;1.80;;
30247;SDS011;17063;50.892;4.702;2023-03-24T10:04:16;11.60;;;1.63;;
30247;SDS011;17063;50.892;4.702;2023-03-24T10:06:45;13.33;;;1.70;;
30247;SDS011;17063;50.892;4.702;2023-03-24T10:20:23;3.17;;;1.17;;
30247;SDS011;17063;50.892;4.702;2023-03-24T10:26:02;8.57;;;1.70;;
30247;SDS011;17063;50.892;4.702;2023-03-24T10:28:37;8.03;;;1.70;;
30247;SDS011;17063;50.892;4.702;2023-03-24T10:31:10;11.77;;;2.00;;
30247;SDS011;17063;50.892;4.702;2023-03-24T10:33:43;7.07;;;1.50;;
30247;SDS011;17063;50.892;4.702;2023-03-24T10:36:17;10.27;;;2.23;;
30247;SDS011;17063;50.892;4.702;2023-03-24T10:38:46;6.23;;;1.87;;
30247;SDS011;17063;50.892;4.702;2023-03-24T10:41:17;11.23;;;1.77;;
30247;SDS011;17063;50.892;4.702;2023-03-24T10:43:46;12.67;;;1.73;;
30247;SDS011;17063;50.892;4.702;2023-03-24T10:46:20;8.03;;;1.93;;
30247;SDS011;17063;50.892;4.702;2023-03-24T10:48:49;6.77;;;1.67;;
30247;SDS011;17063;50.892;4.702;2023-03-24T10:51:25;7.40;;;1.63;;
30247;SDS011;17063;50.892;4.702;2023-03-24T10:56:45;7.67;;;2.53;;
30247;SDS011;17063;50.892;4.702;2023-03-24T11:02:28;9.97;;;2.07;;
30247;SDS011;17063;50.892;4.702;2023-03-24T11:07:34;6.20;;;1.50;;
30247;SDS011;17063;50.892;4.702;2023-03-24T11:10:12;11.73;;;1.80;;
30247;SDS011;17063;50.892;4.702;2023-03-24T11:15:21;11.13;;;1.67;;
30247;SDS011;17063;50.892;4.702;2023-03-24T11:17:55;5.43;;;1.70;;
30247;SDS011;17063;50.892;4.702;2023-03-24T11:23:03;7.20;;;1.40;;
30247;SDS011;17063;50.892;4.702;2023-03-24T11:25:33;5.43;;;1.23;;
30247;SDS011;17063;50.892;4.702;2023-03-24T11:28:04;6.73;;;1.23;;
30247;SDS011;17063;50.892;4.702;2023-03-24T11:30:45;7.77;;;1.60;;
30247;SDS011;17063;50.892;4.702;2023-03-24T11:33:17;6.27;;;1.33;;
30247;SDS011;17063;50.892;4.702;2023-03-24T11:36:13;5.10;;;1.20;;
30247;SDS011;17063;50.892;4.702;2023-03-24T11:39:03;6.80;;;1.43;;
30247;SDS011;17063;50.892;4.702;2023-03-24T11:47:05;9.07;;;1.50;;
30247;SDS011;17063;50.892;4.702;2023-03-24T11:49:38;13.37;;;2.33;;
30247;SDS011;17063;50.892;4.702;2023-03-24T11:52:13;6.90;;;1.50;;
30247;SDS011;17063;50.892;4.702;2023-03-24T11:54:47;7.43;;;1.23;;
30247;SDS011;17063;50.892;4.702;2023-03-24T11:57:15;8.97;;;1.63;;
30247;SDS011;17063;50.892;4.702;2023-03-24T12:00:29;9.60;;;2.03;;
30247;SDS011;17063;50.892;4.702;2023-03-24T12:03:06;14.00;;;3.03;;
30247;SDS011;17063;50.892;4.702;2023-03-24T12:14:18;6.80;;;1.63;;
30247;SDS011;17063;50.892;4.702;2023-03-24T12:17:10;9.17;;;2.00;;
30247;SDS011;17063;50.892;4.702;2023-03-24T12:22:35;4.87;;;1.30;;
30247;SDS011;17063;50.892;4.702;2023-03-24T12:36:12;5.07;;;1.50;;
30247;SDS011;17063;50.892;4.702;2023-03-24T12:38:51;8.23;;;1.50;;
30247;SDS011;17063;50.892;4.702;2023-03-24T12:41:33;8.43;;;1.93;;
30247;SDS011;17063;50.892;4.702;2023-03-24T12:45:14;9.70;;;1.50;;
30247;SDS011;17063;50.892;4.702;2023-03-24T12:56:06;13.83;;;2.23;;
30247;SDS011;17063;50.892;4.702;2023-03-24T12:58:43;6.03;;;1.40;;
30247;SDS011;17063;50.892;4.702;2023-03-24T13:15:17;7.53;;;1.70;;
30247;SDS011;17063;50.892;4.702;2023-03-24T13:20:34;7.43;;;1.20;;
30247;SDS011;17063;50.892;4.702;2023-03-24T13:23:18;10.50;;;1.47;;
30247;SDS011;17063;50.892;4.702;2023-03-24T13:25:51;7.13;;;1.50;;
30247;SDS011;17063;50.892;4.702;2023-03-24T13:28:24;7.97;;;1.40;;
30247;SDS011;17063;50.892;4.702;2023-03-24T13:30:54;6.00;;;1.50;;
30247;SDS011;17063;50.892;4.702;2023-03-24T13:33:28;12.87;;;1.60;;
30247;SDS011;17063;50.892;4.702;2023-03-24T13:41:02;4.73;;;1.23;;
30247;SDS011;17063;50.892;4.702;2023-03-24T13:43:31;4.83;;;0.97;;
30247;SDS011;17063;50.892;4.702;2023-03-24T13:46:33;5.97;;;1.00;;
30247;SDS011;17063;50.892;4.702;2023-03-24T13:48:54;4.00;;;1.07;;
30247;SDS011;17063;50.892;4.702;2023-03-24T13:54:04;3.47;;;1.07;;
30247;SDS011;17063;50.892;4.702;2023-03-24T13:56:55;6.60;;;1.10;;
30247;SDS011;17063;50.892;4.702;2023-03-24T13:59:30;6.03;;;0.70;;
30247;SDS011;17063;50.892;4.702;2023-03-24T14:07:40;7.50;;;1.57;;
30247;SDS011;17063;50.892;4.702;2023-03-24T14:25:54;9.23;;;1.30;;
30247;SDS011;17063;50.892;4.702;2023-03-24T14:28:43;4.03;;;1.07;;
30247;SDS011;17063;50.892;4.702;2023-03-24T14:31:22;6.37;;;1.30;;
30247;SDS011;17063;50.892;4.702;2023-03-24T14:36:31;4.13;;;1.10;;
30247;SDS011;17063;50.892;4.702;2023-03-24T14:41:36;7.10;;;1.23;;
30247;SDS011;17063;50.892;4.702;2023-03-24T14:44:06;9.27;;;1.43;;
30247;SDS011;17063;50.892;4.702;2023-03-24T14:46:34;5.00;;;1.30;;
30247;SDS011;17063;50.892;4.702;2023-03-24T14:49:17;9.10;;;1.50;;
30247;SDS011;17063;50.892;4.702;2023-03-24T14:54:44;4.20;;;1.13;;
30247;SDS011;17063;50.892;4.702;2023-03-24T14:57:29;7.43;;;1.40;;
30247;SDS011;17063;50.892;4.702;2023-03-24T15:00:03;6.13;;;1.30;;
30247;SDS011;17063;50.892;4.702;2023-03-24T15:02:42;4.53;;;1.10;;
30247;SDS011;17063;50.892;4.702;2023-03-24T15:07:44;2.73;;;0.70;;
30247;SDS011;17063;50.892;4.702;2023-03-24T15:10:18;2.30;;;1.30;;
30247;SDS011;17063;50.892;4.702;2023-03-24T15:12:48;1.07;;;0.87;;
30247;SDS011;17063;50.892;4.702;2023-03-24T15:15:17;4.90;;;0.90;;
30247;SDS011;17063;50.892;4.702;2023-03-24T15:17:46;3.60;;;0.93;;
30247;SDS011;17063;50.892;4.702;2023-03-24T15:23:05;2.00;;;0.60;;
30247;SDS011;17063;50.892;4.702;2023-03-24T15:25:33;1.87;;;0.50;;
30247;SDS011;17063;50.892;4.702;2023-03-24T15:28:00;3.20;;;0.70;;
30247;SDS011;17063;50.892;4.702;2023-03-24T15:30:27;1.10;;;0.73;;
30247;SDS011;17063;50.892;4.702;2023-03-24T15:32:54;1.57;;;0.70;;
30247;SDS011;17063;50.892;4.702;2023-03-24T15:35:21;3.37;;;1.00;;
30247;SDS011;17063;50.892;4.702;2023-03-24T15:37:50;3.73;;;0.97;;
30247;SDS011;17063;50.892;4.702;2023-03-24T15:42:52;2.73;;;0.60;;
30247;SDS011;17063;50.892;4.702;2023-03-24T15:48:06;5.80;;;1.10;;
30247;SDS011;17063;50.892;4.702;2023-03-24T15:50:35;3.20;;;0.90;;
30247;SDS011;17063;50.892;4.702;2023-03-24T15:53:26;6.73;;;1.10;;
30247;SDS011;17063;50.892;4.702;2023-03-24T15:56:13;4.23;;;1.20;;
30247;SDS011;17063;50.892;4.702;2023-03-24T16:01:23;5.40;;;1.00;;
30247;SDS011;17063;50.892;4.702;2023-03-24T16:03:58;2.30;;;0.80;;
30247;SDS011;17063;50.892;4.702;2023-03-24T16:06:27;3.27;;;0.70;;
30247;SDS011;17063;50.892;4.702;2023-03-24T16:08:59;3.80;;;1.00;;
30247;SDS011;17063;50.892;4.702;2023-03-24T16:11:27;6.57;;;1.10;;
30247;SDS011;17063;50.892;4.702;2023-03-24T16:13:54;6.80;;;1.00;;
30247;SDS011;17063;50.892;4.702;2023-03-24T16:18:53;6.60;;;1.10;;
30247;SDS011;17063;50.892;4.702;2023-03-24T16:21:22;5.53;;;1.10;;
30247;SDS011;17063;50.892;4.702;2023-03-24T16:23:51;5.03;;;1.60;;
30247;SDS011;17063;50.892;4.702;2023-03-24T16:26:23;6.50;;;1.30;;
30247;SDS011;17063;50.892;4.702;2023-03-24T16:28:59;5.93;;;1.40;;
30247;SDS011;17063;50.892;4.702;2023-03-24T16:31:36;6.13;;;1.53;;
30247;SDS011;17063;50.892;4.702;2023-03-24T16:34:02;7.93;;;2.10;;
30247;SDS011;17063;50.892;4.702;2023-03-24T16:36:29;9.60;;;1.80;;
30247;SDS011;17063;50.892;4.702;2023-03-24T16:38:57;6.93;;;2.80;;
30247;SDS011;17063;50.892;4.702;2023-03-24T16:41:24;7.23;;;2.43;;
30247;SDS011;17063;50.892;4.702;2023-03-24T16:43:51;9.40;;;2.73;;
30247;SDS011;17063;50.892;4.702;2023-03-24T16:46:32;13.80;;;2.83;;
30247;SDS011;17063;50.892;4.702;2023-03-24T16:49:01;9.33;;;2.40;;
30247;SDS011;17063;50.892;4.702;2023-03-24T16:51:29;10.70;;;2.93;;
30247;SDS011;17063;50.892;4.702;2023-03-24T16:53:57;6.57;;;2.83;;
30247;SDS011;17063;50.892;4.702;2023-03-24T16:56:24;7.13;;;2.80;;
30247;SDS011;17063;50.892;4.702;2023-03-24T16:58:52;7.53;;;1.93;;
30247;SDS011;17063;50.892;4.702;2023-03-24T17:04:05;5.70;;;1.90;;
30247;SDS011;17063;50.892;4.702;2023-03-24T17:06:39;3.93;;;1.50;;
30247;SDS011;17063;50.892;4.702;2023-03-24T17:09:14;6.83;;;1.90;;
30247;SDS011;17063;50.892;4.702;2023-03-24T17:11:52;5.03;;;1.83;;
30247;SDS011;17063;50.892;4.702;2023-03-24T17:14:23;6.73;;;1.83;;
30247;SDS011;17063;50.892;4.702;2023-03-24T17:16:51;6.20;;;2.00;;
30247;SDS011;17063;50.892;4.702;2023-03-24T17:19:20;5.33;;;1.90;;
30247;SDS011;17063;50.892;4.702;2023-03-24T17:21:58;6.93;;;2.13;;
30247;SDS011;17063;50.892;4.702;2023-03-24T17:24:30;6.57;;;2.00;;
30247;SDS011;17063;50.892;4.702;2023-03-24T17:27:02;2.53;;;1.50;;
30247;SDS011;17063;50.892;4.702;2023-03-24T17:29:29;5.20;;;2.20;;
30247;SDS011;17063;50.892;4.702;2023-03-24T17:31:58;3.83;;;1.43;;
30247;SDS011;17063;50.892;4.702;2023-03-24T17:34:26;3.13;;;1.07;;
30247;SDS011;17063;50.892;4.702;2023-03-24T17:36:53;3.43;;;1.00;;
30247;SDS011;17063;50.892;4.702;2023-03-24T17:39:20;6.03;;;2.63;;
30247;SDS011;17063;50.892;4.702;2023-03-24T17:41:47;2.70;;;0.83;;
30247;SDS011;17063;50.892;4.702;2023-03-24T17:44:15;2.00;;;1.20;;
30247;SDS011;17063;50.892;4.702;2023-03-24T17:46:42;1.17;;;0.70;;
30247;SDS011;17063;50.892;4.702;2023-03-24T17:49:09;4.03;;;2.23;;
30247;SDS011;17063;50.892;4.702;2023-03-24T17:51:36;8.33;;;4.30;;
30247;SDS011;17063;50.892;4.702;2023-03-24T17:54:02;7.57;;;3.60;;
30247;SDS011;17063;50.892;4.702;2023-03-24T17:56:31;3.97;;;2.37;;
30247;SDS011;17063;50.892;4.702;2023-03-24T17:58:57;2.60;;;1.93;;
30247;SDS011;17063;50.892;4.702;2023-03-24T18:01:26;5.00;;;2.10;;
30247;SDS011;17063;50.892;4.702;2023-03-24T18:03:55;5.70;;;2.17;;
30247;SDS011;17063;50.892;4.702;2023-03-24T18:06:23;2.63;;;1.70;;
30247;SDS011;17063;50.892;4.702;2023-03-24T18:08:50;6.80;;;2.93;;
30247;SDS011;17063;50.892;4.702;2023-03-24T18:11:17;2.83;;;2.00;;
30247;SDS011;17063;50.892;4.702;2023-03-24T18:13:44;4.33;;;2.40;;
30247;SDS011;17063;50.892;4.702;2023-03-24T18:16:14;5.27;;;1.60;;
30247;SDS011;17063;50.892;4.702;2023-03-24T18:18:48;3.43;;;1.60;;
30247;SDS011;17063;50.892;4.702;2023-03-24T18:21:16;12.23;;;6.40;;
30247;SDS011;17063;50.892;4.702;2023-03-24T18:23:43;3.27;;;1.67;;
30247;SDS011;17063;50.892;4.702;2023-03-24T18:26:12;2.90;;;1.40;;
30247;SDS011;17063;50.892;4.702;2023-03-24T18:28:40;3.93;;;1.53;;
30247;SDS011;17063;50.892;4.702;2023-03-24T18:31:12;3.47;;;1.43;;
30247;SDS011;17063;50.892;4.702;2023-03-24T18:33:46;7.60;;;3.20;;
30247;SDS011;17063;50.892;4.702;2023-03-24T18:36:14;6.37;;;3.33;;
30247;SDS011;17063;50.892;4.702;2023-03-24T18:38:42;6.50;;;2.97;;
30247;SDS011;17063;50.892;4.702;2023-03-24T18:41:09;6.00;;;3.13;;
30247;SDS011;17063;50.892;4.702;2023-03-24T18:43:38;3.37;;;1.90;;
30247;SDS011;17063;50.892;4.702;2023-03-24T18:46:11;2.63;;;1.70;;